Time;durP1;ratioP1;P1;durP2;ratioP2;P2;SDS_P1;SDS_P2;PMS_P1;PMS_P2;Temp;Humidity;BMP_temperature;BMP_pressure;BME280_temperature;BME280_humidity;BME280_pressure;Samples;Min_cycle;Max_cycle;Signal;HPM_P1;HPM_P2
2022/05/08 00:01:19;;;;;;;13.93;9.25;;;20.80;54.50;;;;;;7368910;19;20093;-77
2022/05/08 00:03:47;;;;;;;;;;;20.70;54.50;;;;;;7368555;19;20015;-77
2022/05/08 00:06:16;;;;;;;13.65;9.07;;;20.70;54.50;;;;;;7368060;19;19986;-77
2022/05/08 00:08:45;;;;;;;30.00;20.15;;;20.70;54.60;;;;;;7366927;19;20037;-78
2022/05/08 00:11:14;;;;;;;18.50;12.43;;;20.60;54.70;;;;;;7365858;19;20014;-74
2022/05/08 00:13:43;;;;;;;13.73;8.98;;;20.60;54.90;;;;;;7387762;19;20014;-76
2022/05/08 00:16:12;;;;;;;13.30;9.32;;;20.50;55.00;;;;;;7365180;19;20011;-76
2022/05/08 00:18:43;;;;;;;16.65;10.13;;;20.50;54.90;;;;;;7367734;19;20010;-76
2022/05/08 00:21:12;;;;;;;;;;;20.50;55.10;;;;;;7366048;19;20018;-76
2022/05/08 00:23:41;;;;;;;13.77;9.18;;;20.50;55.10;;;;;;7364655;19;19998;-77
2022/05/08 00:26:10;;;;;;;14.48;9.57;;;20.50;55.10;;;;;;7366534;19;20462;-76
2022/05/08 00:28:39;;;;;;;15.77;9.57;;;20.50;55.20;;;;;;7388168;19;20010;-78
2022/05/08 00:31:10;;;;;;;17.75;10.05;;;20.50;55.20;;;;;;7365785;19;20150;-78
2022/05/08 00:33:40;;;;;;;17.00;10.63;;;20.40;55.20;;;;;;7362909;19;20344;-76
2022/05/08 00:36:12;;;;;;;15.30;9.93;;;20.40;55.30;;;;;;7365064;19;20113;-77
2022/05/08 00:38:41;;;;;;;18.08;10.88;;;20.40;55.20;;;;;;7365811;19;20044;-77
2022/05/08 00:41:10;;;;;;;17.02;10.02;;;20.50;55.20;;;;;;7365760;19;20459;-76
2022/05/08 00:43:41;;;;;;;14.05;9.35;;;20.50;55.00;;;;;;7388676;19;20018;-77
2022/05/08 00:46:11;;;;;;;18.35;10.50;;;20.40;55.00;;;;;;7365297;19;20011;-76
2022/05/08 00:48:41;;;;;;;15.67;11.67;;;20.40;55.20;;;;;;7366949;19;20018;-76
2022/05/08 00:51:16;;;;;;;18.58;11.48;;;20.30;55.30;;;;;;7366065;19;20105;-76
2022/05/08 00:53:46;;;;;;;15.63;10.88;;;20.30;55.60;;;;;;7365764;19;20025;-76
2022/05/08 00:56:16;;;;;;;19.70;12.07;;;20.30;55.50;;;;;;7366541;19;20019;-76
2022/05/08 00:58:50;;;;;;;20.27;11.38;;;20.30;55.60;;;;;;7385940;19;20022;-76
2022/05/08 01:01:19;;;;;;;16.80;10.98;;;20.30;55.70;;;;;;7365144;19;20018;-77
2022/05/08 01:03:48;;;;;;;15.60;10.70;;;20.30;55.70;;;;;;7365890;19;20323;-77
2022/05/08 01:06:22;;;;;;;17.60;10.32;;;20.40;55.60;;;;;;7365217;19;20023;-76
2022/05/08 01:08:52;;;;;;;18.35;10.25;;;20.40;55.60;;;;;;7366063;19;20015;-77
2022/05/08 01:11:21;;;;;;;15.73;10.27;;;20.40;55.40;;;;;;7365956;19;20040;-77
2022/05/08 01:13:51;;;;;;;17.00;10.57;;;20.40;55.30;;;;;;7384323;19;20605;-77
2022/05/08 01:16:21;;;;;;;21.02;11.05;;;20.40;55.30;;;;;;7365058;19;20035;-77
2022/05/08 01:18:51;;;;;;;21.25;11.35;;;20.30;55.40;;;;;;7365610;19;20043;-77
2022/05/08 01:21:34;;;;;;;22.10;12.07;;;20.20;55.70;;;;;;7363656;19;20091;-76
2022/05/08 01:24:03;;;;;;;20.15;12.02;;;20.20;55.90;;;;;;7364274;19;20402;-78
2022/05/08 01:26:31;;;;;;;20.88;12.57;;;20.20;55.90;;;;;;7364382;19;20018;-76
2022/05/08 01:29:00;;;;;;;20.45;11.85;;;20.20;55.90;;;;;;7385290;19;20105;-76
2022/05/08 01:31:30;;;;;;;19.52;11.80;;;20.10;56.00;;;;;;7363583;19;20392;-76
2022/05/08 01:33:59;;;;;;;19.45;12.35;;;20.10;56.10;;;;;;7364453;19;20010;-76
2022/05/08 01:36:28;;;;;;;19.10;12.25;;;20.10;56.20;;;;;;7363475;19;20086;-76
2022/05/08 01:38:59;;;;;;;19.85;13.10;;;20.10;56.20;;;;;;7364069;19;20019;-76
2022/05/08 01:41:28;;;;;;;20.80;13.25;;;20.00;56.30;;;;;;7362850;19;20083;-76
2022/05/08 01:43:57;;;;;;;18.65;12.77;;;20.00;56.30;;;;;;7386439;19;20014;-76
2022/05/08 01:46:26;;;;;;;23.58;13.68;;;20.00;56.40;;;;;;7370766;19;20059;-76
2022/05/08 01:48:52;;;;;;;23.30;13.18;;;19.90;56.40;;;;;;7371636;19;20298;-76
2022/05/08 01:51:22;;;;;;;21.77;13.55;;;20.00;56.70;;;;;;7369426;19;20022;-77
2022/05/08 01:53:51;;;;;;;18.45;12.32;;;20.00;56.60;;;;;;7372137;19;20010;-78
2022/05/08 01:56:22;;;;;;;25.73;12.23;;;19.90;56.60;;;;;;7368434;19;20090;-76
2022/05/08 01:58:52;;;;;;;19.23;12.13;;;19.90;56.60;;;;;;7390197;19;20128;-76
2022/05/08 02:01:21;;;;;;;16.35;11.80;;;19.90;56.70;;;;;;7370756;19;20018;-77
2022/05/08 02:03:50;;;;;;;20.25;12.65;;;19.90;56.80;;;;;;7371678;19;20010;-76
2022/05/08 02:06:19;;;;;;;18.30;11.73;;;19.90;56.80;;;;;;7370142;19;20006;-77
2022/05/08 02:08:48;;;;;;;19.80;13.05;;;19.90;56.60;;;;;;7370885;19;20354;-77
2022/05/08 02:11:17;;;;;;;25.88;12.45;;;19.90;56.40;;;;;;7367671;19;20082;-77
2022/05/08 02:13:48;;;;;;;19.98;12.90;;;19.90;56.40;;;;;;7389284;19;20026;-77
2022/05/08 02:16:17;;;;;;;21.60;12.75;;;19.90;56.20;;;;;;7369615;19;20021;-76
2022/05/08 02:18:45;;;;;;;17.35;11.55;;;19.90;56.20;;;;;;7370858;19;20039;-76
2022/05/08 02:21:14;;;;;;;21.70;14.15;;;19.90;55.90;;;;;;7370270;19;20125;-76
2022/05/08 02:23:43;;;;;;;15.77;11.32;;;19.80;56.00;;;;;;7370269;19;20030;-77
2022/05/08 02:26:12;;;;;;;21.75;12.20;;;19.80;56.20;;;;;;7370993;19;20054;-77
2022/05/08 02:28:41;;;;;;;18.00;12.13;;;19.80;56.20;;;;;;7392078;19;20103;-76
2022/05/08 02:31:13;;;;;;;18.30;13.05;;;19.70;56.30;;;;;;7368986;19;20508;-77
2022/05/08 02:33:41;;;;;;;22.38;14.02;;;19.70;56.40;;;;;;7371170;19;20006;-77
2022/05/08 02:36:10;;;;;;;22.50;15.35;;;19.70;56.50;;;;;;7371321;19;20026;-77
2022/05/08 02:38:39;;;;;;;21.75;14.20;;;19.70;56.70;;;;;;7370640;19;20086;-77
2022/05/08 02:41:08;;;;;;;26.67;16.02;;;19.70;56.80;;;;;;7385103;19;20025;-76
2022/05/08 02:43:37;;;;;;;26.52;17.00;;;19.70;56.80;;;;;;7393228;19;20010;-76
2022/05/08 02:46:06;;;;;;;26.95;17.08;;;19.60;56.80;;;;;;7370403;19;20036;-76
2022/05/08 02:48:37;;;;;;;25.20;16.23;;;19.50;57.00;;;;;;7371576;19;20014;-76
2022/05/08 02:51:07;;;;;;;29.83;16.50;;;19.40;57.30;;;;;;7369098;19;20018;-77
2022/05/08 02:53:36;;;;;;;24.97;15.90;;;19.30;57.50;;;;;;7368655;19;20090;-76
2022/05/08 02:58:47;;;;;;;;;;;19.30;57.70;;;;;;7372368;19;20483;-75
2022/05/08 03:01:16;;;;;;;27.77;17.70;;;19.40;57.80;;;;;;7371730;19;19947;-77
2022/05/08 03:03:47;;;;;;;29.88;18.08;;;19.30;57.70;;;;;;7369852;19;20025;-75
2022/05/08 03:06:16;;;;;;;;;;;19.30;57.80;;;;;;7370121;19;20018;-76
2022/05/08 03:08:45;;;;;;;32.80;18.02;;;19.30;57.80;;;;;;7369586;19;19915;-76
2022/05/08 03:11:29;;;;;;;29.50;17.65;;;19.30;57.80;;;;;;7367772;19;20019;-76
2022/05/08 03:13:59;;;;;;;33.63;19.70;;;19.20;57.90;;;;;;7388527;19;20019;-76
2022/05/08 03:16:29;;;;;;;31.55;18.88;;;19.20;58.00;;;;;;7369738;19;20010;-75
2022/05/08 03:19:00;;;;;;;28.17;19.00;;;19.10;58.20;;;;;;7370413;19;20476;-75
2022/05/08 03:21:29;;;;;;;32.60;19.17;;;19.10;58.30;;;;;;7370289;19;20018;-77
2022/05/08 03:23:58;;;;;;;30.02;19.20;;;19.10;58.40;;;;;;7368902;19;20027;-77
2022/05/08 03:26:28;;;;;;;30.35;18.67;;;19.10;58.40;;;;;;7370521;19;20014;-76
2022/05/08 03:28:57;;;;;;;29.83;19.65;;;19.00;58.50;;;;;;7389862;19;20027;-77
2022/05/08 03:31:25;;;;;;;34.28;19.52;;;19.00;58.60;;;;;;7367902;19;20011;-77
2022/05/08 03:33:55;;;;;;;31.27;19.00;;;19.00;58.60;;;;;;7370126;19;20010;-77
2022/05/08 03:36:26;;;;;;;32.05;20.10;;;18.80;58.80;;;;;;7370473;19;20006;-76
2022/05/08 03:38:56;;;;;;;35.72;20.17;;;18.90;59.00;;;;;;7368538;19;20102;-76
2022/05/08 03:41:24;;;;;;;32.80;19.30;;;18.90;59.00;;;;;;7369095;19;20345;-77
2022/05/08 03:43:53;;;;;;;34.75;20.77;;;18.90;59.00;;;;;;7389415;19;20101;-77
2022/05/08 03:46:22;;;;;;;36.20;20.92;;;18.90;58.80;;;;;;7369527;19;20014;-78
2022/05/08 03:48:51;;;;;;;35.85;20.67;;;18.90;58.80;;;;;;7367828;19;20080;-76
2022/05/08 03:51:20;;;;;;;40.72;22.90;;;18.90;58.80;;;;;;7367056;19;20006;-75
2022/05/08 03:53:51;;;;;;;40.03;23.17;;;18.80;58.90;;;;;;7368674;19;20078;-76
2022/05/08 03:56:20;;;;;;;;;;;18.90;59.00;;;;;;7370485;19;20034;-76
2022/05/08 03:58:48;;;;;;;36.97;21.20;;;18.90;59.10;;;;;;7389430;19;19922;-76
2022/05/08 04:01:17;;;;;;;39.95;24.23;;;18.90;59.00;;;;;;7368479;19;20096;-76
2022/05/08 04:03:46;;;;;;;41.70;26.02;;;18.90;59.00;;;;;;7369751;19;20016;-76
2022/05/08 04:06:14;;;;;;;40.22;24.38;;;18.80;59.00;;;;;;7369437;19;20029;-76
2022/05/08 04:08:44;;;;;;;42.40;24.73;;;18.90;59.20;;;;;;7368191;19;20319;-76
2022/05/08 04:11:15;;;;;;;42.63;25.42;;;18.80;59.00;;;;;;7369571;19;20014;-77
2022/05/08 04:13:44;;;;;;;41.05;25.83;;;18.90;59.00;;;;;;7390847;19;20385;-76
2022/05/08 04:16:21;;;;;;;46.83;28.55;;;18.90;58.90;;;;;;7368891;19;20392;-76
2022/05/08 04:18:51;;;;;;;49.67;30.05;;;19.00;58.90;;;;;;7368433;19;20010;-76
2022/05/08 04:21:20;;;;;;;44.67;28.25;;;19.00;58.80;;;;;;7368402;19;20015;-76
2022/05/08 04:26:32;;;;;;;47.80;29.20;;;19.00;58.90;;;;;;7368818;19;20893;-76
2022/05/08 04:29:01;;;;;;;46.80;28.35;;;19.00;58.80;;;;;;7391802;19;20021;-76
2022/05/08 04:31:30;;;;;;;46.20;30.20;;;19.00;58.80;;;;;;7366774;19;20042;-77
2022/05/08 04:33:58;;;;;;;51.03;31.55;;;19.00;58.80;;;;;;7366397;19;20203;-77
2022/05/08 04:36:27;;;;;;;48.17;30.63;;;19.00;58.90;;;;;;7367053;19;20542;-76
2022/05/08 04:38:56;;;;;;;48.75;30.25;;;19.00;59.00;;;;;;7366955;19;20427;-76
2022/05/08 04:41:25;;;;;;;56.10;33.55;;;18.90;59.10;;;;;;7366146;19;20089;-76
2022/05/08 04:43:59;;;;;;;54.22;33.47;;;19.00;59.20;;;;;;7387685;19;20007;-75
2022/05/08 04:46:29;;;;;;;58.25;35.33;;;18.90;59.10;;;;;;7366142;19;20697;-76
2022/05/08 04:48:58;;;;;;;59.40;37.15;;;18.80;59.30;;;;;;7367754;19;20022;-76
2022/05/08 04:51:26;;;;;;;60.83;37.00;;;18.70;59.60;;;;;;7368038;19;20019;-76
2022/05/08 04:53:55;;;;;;;56.53;35.22;;;18.60;59.90;;;;;;7366317;19;20581;-76
2022/05/08 04:56:24;;;;;;;57.28;36.28;;;18.60;60.20;;;;;;7367681;19;20011;-76
2022/05/08 04:58:55;;;;;;;62.55;38.13;;;18.70;60.20;;;;;;7388946;19;20013;-76
2022/05/08 05:01:24;;;;;;;65.30;38.33;;;18.70;60.00;;;;;;7366394;19;20100;-77
2022/05/08 05:03:53;;;;;;;61.40;38.67;;;18.60;60.10;;;;;;7365854;19;20006;-76
2022/05/08 05:06:22;;;;;;;63.30;39.22;;;18.60;60.20;;;;;;7367161;19;20086;-76
2022/05/08 05:08:51;;;;;;;59.65;38.65;;;18.70;60.00;;;;;;7366994;19;20014;-76
2022/05/08 05:11:19;;;;;;;62.15;39.17;;;18.60;60.00;;;;;;7367233;19;20031;-76
2022/05/08 05:13:48;;;;;;;72.05;44.28;;;18.60;60.30;;;;;;7386776;19;20026;-76
2022/05/08 05:16:19;;;;;;;64.38;40.30;;;18.40;60.30;;;;;;7365716;19;20014;-77
2022/05/08 05:18:48;;;;;;;62.40;39.58;;;18.50;60.70;;;;;;7365655;19;20098;-77
2022/05/08 05:21:17;;;;;;;65.10;41.47;;;18.60;60.50;;;;;;7365319;19;20026;-77
2022/05/08 05:23:46;;;;;;;68.47;43.70;;;18.60;60.30;;;;;;7367604;19;20011;-76
2022/05/08 05:26:17;;;;;;;67.15;41.55;;;18.40;60.70;;;;;;7367377;19;20018;-77
2022/05/08 05:28:47;;;;;;;71.85;43.85;;;18.30;61.10;;;;;;7387856;19;20023;-77
2022/05/08 05:31:15;;;;;;;72.38;43.85;;;18.40;61.30;;;;;;7367950;19;20090;-76
2022/05/08 05:33:47;;;;;;;73.88;42.70;;;18.10;61.40;;;;;;7365526;19;20014;-76
2022/05/08 05:36:15;;;;;;;76.13;42.72;;;18.10;61.60;;;;;;7366388;19;20131;-78
2022/05/08 05:38:44;;;;;;;69.80;41.83;;;18.20;61.60;;;;;;7366649;19;20086;-77
2022/05/08 05:41:13;;;;;;;62.60;38.40;;;18.40;61.30;;;;;;7365980;19;20089;-76
2022/05/08 05:43:42;;;;;;;69.45;40.13;;;18.50;61.90;;;;;;7388429;19;20007;-77
2022/05/08 05:48:55;;;;;;;68.15;41.47;;;18.60;60.30;;;;;;7365724;19;20018;-76
2022/05/08 05:51:23;;;;;;;69.03;41.13;;;18.60;60.20;;;;;;7364676;19;20017;-77
2022/05/08 05:53:52;;;;;;;61.90;38.92;;;18.60;60.20;;;;;;7367195;19;20013;-77
2022/05/08 05:56:21;;;;;;;69.25;41.40;;;18.70;60.10;;;;;;7364947;19;20010;-77
2022/05/08 05:58:50;;;;;;;63.22;39.30;;;18.70;59.80;;;;;;7384544;19;20114;-76
2022/05/08 06:01:19;;;;;;;62.78;40.05;;;18.80;59.80;;;;;;7365223;19;20031;-76
2022/05/08 06:03:48;;;;;;;65.00;39.78;;;18.90;59.70;;;;;;7365187;19;20049;-76
2022/05/08 06:06:20;;;;;;;66.85;39.67;;;18.90;59.50;;;;;;7365487;19;20027;-76
2022/05/08 06:08:49;;;;;;;67.90;38.92;;;18.80;59.30;;;;;;7364204;19;20022;-76
2022/05/08 06:11:18;;;;;;;75.13;41.70;;;18.80;59.50;;;;;;7365588;19;20026;-77
2022/05/08 06:13:47;;;;;;;67.75;39.92;;;18.60;59.50;;;;;;7384201;19;20010;-76
2022/05/08 06:16:15;;;;;;;70.63;41.15;;;18.60;60.70;;;;;;7363429;19;20374;-77
2022/05/08 06:18:44;;;;;;;64.78;37.42;;;18.50;60.00;;;;;;7365153;19;20743;-76
2022/05/08 06:21:13;;;;;;;67.55;40.03;;;18.60;60.10;;;;;;7365159;19;20015;-75
2022/05/08 06:23:45;;;;;;;64.70;39.67;;;18.60;60.10;;;;;;7364477;19;20637;-76
2022/05/08 06:26:16;;;;;;;69.97;40.47;;;18.60;60.20;;;;;;7363219;19;20006;-76
2022/05/08 06:28:45;;;;;;;63.03;38.85;;;18.70;60.00;;;;;;7384881;19;20031;-76
2022/05/08 06:31:16;;;;;;;64.53;39.45;;;18.80;59.70;;;;;;7368656;19;20017;-76
2022/05/08 06:33:44;;;;;;;64.97;38.47;;;18.90;59.70;;;;;;7370253;19;20384;-77
2022/05/08 06:36:14;;;;;;;70.82;41.35;;;19.00;59.60;;;;;;7371858;19;20099;-77
2022/05/08 06:38:45;;;;;;;77.82;43.35;;;19.00;59.30;;;;;;7370394;19;20010;-76
2022/05/08 06:41:14;;;;;;;;;;;19.10;59.20;;;;;;7370098;19;20447;-77
2022/05/08 06:43:44;;;;;;;70.10;40.53;;;19.10;59.20;;;;;;7392977;19;19923;-76
2022/05/08 06:46:13;;;;;;;68.97;42.35;;;19.00;59.20;;;;;;7371577;19;20090;-77
2022/05/08 06:48:42;;;;;;;67.95;39.35;;;19.00;59.40;;;;;;7369873;19;20052;-77
2022/05/08 06:51:12;;;;;;;73.85;42.00;;;19.00;59.40;;;;;;7371504;19;20500;-75
2022/05/08 06:53:42;;;;;;;71.32;41.38;;;19.10;59.20;;;;;;7370090;19;20446;-77
2022/05/08 06:56:16;;;;;;;67.57;40.97;;;19.10;59.10;;;;;;7369039;19;20466;-77
2022/05/08 07:01:38;;;;;;;;;;;18.90;59.00;;;;;;7371713;19;20011;-76
2022/05/08 07:04:09;;;;;;;73.78;42.22;;;18.80;59.40;;;;;;7372195;19;19919;-76
2022/05/08 07:06:39;;;;;;;80.25;43.85;;;18.90;59.40;;;;;;7371132;19;20022;-76
2022/05/08 07:09:09;;;;;;;76.50;43.33;;;18.70;59.60;;;;;;7372044;19;20089;-76
2022/05/08 07:11:41;;;;;;;74.80;41.80;;;18.60;60.10;;;;;;7370254;19;20014;-77
2022/05/08 07:14:10;;;;;;;77.50;43.08;;;18.60;60.10;;;;;;7370336;19;20035;-76
2022/05/08 07:16:38;;;;;;;77.18;43.20;;;18.70;59.90;;;;;;7392526;19;20039;-76
2022/05/08 07:19:07;;;;;;;78.65;42.95;;;18.80;60.90;;;;;;7371093;19;20069;-77
2022/05/08 07:21:36;;;;;;;74.32;42.88;;;18.80;60.00;;;;;;7370321;19;20006;-76
2022/05/08 07:24:05;;;;;;;71.30;40.95;;;18.80;59.80;;;;;;7369802;19;20134;-77
2022/05/08 07:26:34;;;;;;;65.90;39.35;;;18.80;59.70;;;;;;7369555;19;20014;-76
2022/05/08 07:29:06;;;;;;;72.97;40.92;;;18.80;59.80;;;;;;7389336;19;20026;-76
2022/05/08 07:31:35;;;;;;;72.43;41.92;;;18.70;59.70;;;;;;7369440;19;20074;-77
2022/05/08 07:36:45;;;;;;;65.00;36.40;;;18.50;60.20;;;;;;7370844;19;20007;-77
2022/05/08 07:39:14;;;;;;;67.30;38.90;;;18.50;60.50;;;;;;7369017;19;20014;-76
2022/05/08 07:41:43;;;;;;;65.18;36.05;;;18.60;60.30;;;;;;7368930;19;20022;-76
2022/05/08 07:44:14;;;;;;;62.30;36.38;;;18.70;60.00;;;;;;7369418;19;20021;-79
2022/05/08 07:46:43;;;;;;;65.97;37.28;;;18.80;59.60;;;;;;7388718;19;20075;-76
2022/05/08 07:49:15;;;;;;;65.10;37.97;;;18.90;59.60;;;;;;7368741;19;20010;-76
2022/05/08 07:51:44;;;;;;;74.63;40.38;;;19.10;60.20;;;;;;7369591;19;20015;-76
2022/05/08 07:54:13;;;;;;;69.45;39.83;;;19.00;59.20;;;;;;7368374;19;20018;-77
2022/05/08 07:56:41;;;;;;;60.10;36.15;;;19.00;59.50;;;;;;7369255;19;20046;-77
2022/05/08 07:59:10;;;;;;;62.85;36.72;;;19.10;59.80;;;;;;7368345;19;20576;-79
2022/05/08 08:01:42;;;;;;;63.72;38.20;;;19.20;59.40;;;;;;7387418;19;20025;-76
2022/05/08 08:04:11;;;;;;;63.90;36.72;;;19.20;58.80;;;;;;7366782;19;20017;-78
2022/05/08 08:06:40;;;;;;;58.85;35.47;;;19.10;58.80;;;;;;7366278;19;20022;-76
2022/05/08 08:09:10;;;;;;;65.88;37.53;;;19.20;59.10;;;;;;7366519;19;20336;-76
2022/05/08 08:11:41;;;;;;;55.50;33.75;;;19.20;58.90;;;;;;7368007;19;20020;-77
2022/05/08 08:14:09;;;;;;;64.68;36.22;;;19.30;59.00;;;;;;7370926;19;20021;-81
2022/05/08 08:16:41;;;;;;;52.35;32.90;;;19.20;58.60;;;;;;7391399;19;20014;-80
2022/05/08 08:19:10;;;;;;;446.08;305.17;;;19.10;58.80;;;;;;7369351;19;20007;-80
2022/05/08 08:21:39;;;;;;;56.22;35.88;;;19.20;58.80;;;;;;7369239;19;20465;-76
2022/05/08 08:24:08;;;;;;;56.88;34.25;;;19.30;58.80;;;;;;7368082;19;20011;-78
2022/05/08 08:26:40;;;;;;;58.47;33.80;;;19.30;58.40;;;;;;7367564;19;20018;-79
2022/05/08 08:29:09;;;;;;;56.58;33.83;;;19.40;58.50;;;;;;7376251;19;20022;-78
2022/05/08 08:31:40;;;;;;;54.88;32.50;;;19.40;58.30;;;;;;7386522;19;20508;-78
2022/05/08 08:34:09;;;;;;;53.38;32.15;;;19.60;58.40;;;;;;7366613;19;20182;-78
2022/05/08 08:36:38;;;;;;;53.20;31.05;;;19.80;57.70;;;;;;7369316;19;20017;-78
2022/05/08 08:39:07;;;;;;;57.20;34.13;;;19.80;57.50;;;;;;7366846;19;20006;-79
2022/05/08 08:41:38;;;;;;;53.83;32.90;;;19.80;57.50;;;;;;7367298;19;20023;-78
2022/05/08 08:49:43;;;;;;;55.08;33.15;;;20.20;57.10;;;;;;7368524;19;20412;-79
2022/05/08 08:52:14;;;;;;;58.63;34.30;;;20.20;56.80;;;;;;7367287;19;20010;-78
2022/05/08 08:54:43;;;;;;;51.40;31.52;;;20.30;56.60;;;;;;7364581;19;20453;-80
2022/05/08 08:57:13;;;;;;;53.40;32.60;;;20.40;56.80;;;;;;7368138;19;20043;-78
2022/05/08 08:59:41;;;;;;;55.50;33.10;;;20.40;56.50;;;;;;7369330;19;20026;-78
2022/05/08 09:02:23;;;;;;;50.53;30.20;;;20.20;56.30;;;;;;7368605;19;20036;-78
2022/05/08 09:04:54;;;;;;;53.55;30.25;;;20.20;56.60;;;;;;7408757;19;20066;-79
2022/05/08 09:07:38;;;;;;;52.50;31.48;;;20.40;56.60;;;;;;7398644;19;20054;-79
2022/05/08 09:10:15;;;;;;;49.58;30.05;;;20.50;56.50;;;;;;7399713;19;20007;-79
2022/05/08 09:12:46;;;;;;;53.17;30.52;;;20.60;56.00;;;;;;7396329;19;20015;-79
2022/05/08 09:15:23;;;;;;;48.38;30.95;;;20.70;55.80;;;;;;7380341;19;20019;-80
2022/05/08 09:17:57;;;;;;;53.28;30.58;;;20.60;55.70;;;;;;7371440;19;20018;-79
2022/05/08 09:20:39;;;;;;;55.88;33.38;;;20.60;56.10;;;;;;7371841;19;20018;-80
2022/05/08 09:23:16;;;;;;;52.00;33.10;;;20.50;55.90;;;;;;7388279;19;20038;-79
2022/05/08 09:25:54;;;;;;;49.85;31.20;;;20.30;56.40;;;;;;7388174;19;20435;-80
2022/05/08 09:28:23;;;;;;;57.00;31.67;;;20.40;56.90;;;;;;7368709;19;20011;-80
2022/05/08 09:31:02;;;;;;;58.28;32.85;;;20.40;56.40;;;;;;7368300;19;20035;-79
2022/05/08 09:33:36;;;;;;;57.22;32.28;;;20.40;56.00;;;;;;7366529;19;20443;-77
2022/05/08 09:36:07;;;;;;;51.03;31.30;;;20.40;55.90;;;;;;7367307;19;20081;-77
2022/05/08 09:38:43;;;;;;;55.55;30.38;;;20.40;55.90;;;;;;7366232;19;20098;-76
2022/05/08 09:41:13;;;;;;;70.45;42.85;;;20.40;56.00;;;;;;7365961;19;20028;-78
2022/05/08 09:43:42;;;;;;;130.52;81.63;;;20.60;56.30;;;;;;7390956;19;20493;-78
2022/05/08 09:46:15;;;;;;;74.68;41.22;;;20.60;56.10;;;;;;7368723;19;20117;-79
2022/05/08 09:48:46;;;;;;;63.13;34.60;;;20.50;55.90;;;;;;7365151;19;20022;-76
2022/05/08 09:51:16;;;;;;;;;;;20.60;55.50;;;;;;7365079;19;20113;-76
2022/05/08 09:53:46;;;;;;;57.70;31.90;;;20.60;55.50;;;;;;7363936;19;19915;-76
2022/05/08 09:56:16;;;;;;;58.30;30.33;;;20.40;55.90;;;;;;7363774;19;20853;-77
2022/05/08 09:58:44;;;;;;;62.70;32.65;;;20.50;56.20;;;;;;7386287;19;20025;-76
2022/05/08 10:01:16;;;;;;;71.35;37.63;;;20.30;55.90;;;;;;7363683;19;20077;-76
2022/05/08 10:03:49;;;;;;;57.92;31.77;;;20.30;56.10;;;;;;7364675;19;20011;-76
2022/05/08 10:06:22;;;;;;;54.20;29.58;;;20.20;56.80;;;;;;7369658;19;20096;-76
2022/05/08 10:08:51;;;;;;;51.47;29.25;;;20.40;56.40;;;;;;7369671;19;20014;-76
2022/05/08 10:14:04;;;;;;;50.47;28.23;;;20.60;56.40;;;;;;7394811;19;20022;-76
2022/05/08 10:16:55;;;;;;;58.72;30.25;;;20.90;55.90;;;;;;7371526;19;20025;-76
2022/05/08 10:19:48;;;;;;;59.58;30.73;;;21.10;55.50;;;;;;7370738;19;20026;-76
2022/05/08 10:22:17;;;;;;;58.85;31.48;;;21.30;55.00;;;;;;7370148;19;20039;-80
2022/05/08 10:24:51;;;;;;;57.92;31.50;;;21.50;54.30;;;;;;7371243;19;20085;-76
2022/05/08 10:27:29;;;;;;;55.83;31.73;;;21.50;53.80;;;;;;7371244;19;20450;-73
2022/05/08 10:30:22;;;;;;;63.78;32.05;;;21.50;54.00;;;;;;7371006;19;20358;-76
2022/05/08 10:32:54;;;;;;;66.90;31.75;;;21.50;53.60;;;;;;7370511;19;20011;-76
2022/05/08 10:35:28;;;;;;;67.05;36.38;;;21.40;53.90;;;;;;7370246;19;20046;-74
2022/05/08 10:38:24;;;;;;;100.75;61.88;;;21.30;53.90;;;;;;7394086;19;20025;-80
2022/05/08 10:40:55;;;;;;;97.28;59.03;;;21.30;53.80;;;;;;7371964;19;20006;-77
2022/05/08 10:43:32;;;;;;;61.22;32.20;;;21.40;54.20;;;;;;7371431;19;20010;-79
2022/05/08 10:46:24;;;;;;;59.97;30.83;;;21.50;54.50;;;;;;7370924;19;20115;-75
2022/05/08 10:48:54;;;;;;;54.45;28.90;;;21.60;54.00;;;;;;7370834;19;20026;-76
2022/05/08 10:51:25;;;;;;;51.03;28.05;;;21.80;53.80;;;;;;7371011;19;20459;-78
2022/05/08 10:53:54;;;;;;;55.72;29.95;;;21.90;53.70;;;;;;7369711;19;20078;-77
2022/05/08 10:56:24;;;;;;;53.10;28.38;;;22.10;53.50;;;;;;7368177;19;20017;-79
2022/05/08 10:58:59;;;;;;;53.28;28.50;;;22.00;52.80;;;;;;7390618;19;20018;-76
2022/05/08 11:01:31;;;;;;;51.63;30.63;;;21.90;52.90;;;;;;7369611;19;20011;-76
2022/05/08 11:04:16;;;;;;;56.85;31.42;;;21.80;53.30;;;;;;7360066;19;20018;-77
2022/05/08 11:06:53;;;;;;;56.88;31.02;;;21.60;53.60;;;;;;7365332;19;20111;-77
2022/05/08 11:09:22;;;;;;;52.97;29.92;;;21.60;53.60;;;;;;7367955;19;20094;-77
2022/05/08 11:11:51;;;;;;;49.83;29.13;;;21.60;53.60;;;;;;7370522;19;20010;-76
2022/05/08 11:14:28;;;;;;;58.30;29.90;;;21.70;53.90;;;;;;7371295;19;20014;-77
2022/05/08 11:16:57;;;;;;;54.85;30.33;;;21.50;53.70;;;;;;7387224;19;20019;-77
2022/05/08 11:19:26;;;;;;;52.75;29.02;;;21.60;53.70;;;;;;7368399;19;20015;-76
2022/05/08 11:22:13;;;;;;;52.08;29.17;;;21.70;53.50;;;;;;7369702;19;20106;-77
2022/05/08 11:24:42;;;;;;;52.90;30.02;;;21.80;53.00;;;;;;7369823;19;20118;-77
2022/05/08 11:27:15;;;;;;;49.63;30.08;;;21.60;53.00;;;;;;7371433;19;20107;-79
2022/05/08 11:29:50;;;;;;;46.13;28.30;;;21.50;53.10;;;;;;7371362;19;20074;-77
2022/05/08 11:38:11;;;;;;;49.63;28.70;;;21.70;53.10;;;;;;7368098;19;20098;-77
2022/05/08 11:40:40;;;;;;;54.25;30.48;;;21.80;53.20;;;;;;7368829;19;20014;-76
2022/05/08 11:43:08;;;;;;;48.85;28.23;;;21.70;53.00;;;;;;7367344;19;20014;-77
2022/05/08 11:45:37;;;;;;;52.78;29.80;;;21.50;53.10;;;;;;7368898;19;20011;-74
2022/05/08 11:48:07;;;;;;;93.93;57.85;;;21.60;53.70;;;;;;7367559;19;20018;-73
2022/05/08 11:50:36;;;;;;;49.35;29.42;;;21.60;53.70;;;;;;7367358;19;20086;-77
2022/05/08 11:53:08;;;;;;;46.47;28.10;;;21.70;53.50;;;;;;7388917;19;20015;-75
2022/05/08 11:55:45;;;;;;;;;;;21.90;53.80;;;;;;7367321;19;20335;-75
2022/05/08 11:58:14;;;;;;;50.08;29.10;;;22.00;53.40;;;;;;7366013;19;19927;-77
2022/05/08 12:00:43;;;;;;;51.25;28.48;;;22.00;52.90;;;;;;7367772;19;20051;-75
2022/05/08 12:03:29;;;;;;;45.95;28.02;;;21.80;52.70;;;;;;7368004;19;20469;-77
2022/05/08 12:06:12;;;;;;;50.10;27.80;;;21.80;53.20;;;;;;7367193;19;20033;-75
2022/05/08 12:08:44;;;;;;;48.55;26.92;;;21.80;53.40;;;;;;7362856;19;20010;-75
2022/05/08 12:11:35;;;;;;;48.75;27.75;;;21.80;53.00;;;;;;7367927;19;20031;-75
2022/05/08 12:14:10;;;;;;;46.42;26.75;;;21.80;52.60;;;;;;7390935;19;20018;-75
2022/05/08 12:16:38;;;;;;;46.15;24.17;;;21.90;52.80;;;;;;7365918;19;20027;-78
2022/05/08 12:19:19;;;;;;;41.28;23.38;;;22.10;52.90;;;;;;7367615;19;20011;-78
2022/05/08 12:21:49;;;;;;;38.63;22.92;;;22.30;52.70;;;;;;7368590;19;20048;-77
2022/05/08 12:24:20;;;;;;;38.07;25.30;;;22.40;52.20;;;;;;7367573;19;20443;-75
2022/05/08 12:26:49;;;;;;;;;;;22.60;51.30;;;;;;7368913;19;20018;-76
2022/05/08 12:29:21;;;;;;;42.22;24.42;;;22.70;51.10;;;;;;7367019;19;19926;-76
2022/05/08 12:31:52;;;;;;;39.53;24.42;;;22.90;51.30;;;;;;7387775;19;20066;-78
2022/05/08 12:34:22;;;;;;;37.35;22.75;;;23.00;51.30;;;;;;7368362;19;20743;-78
2022/05/08 12:36:51;;;;;;;37.85;23.08;;;23.00;51.30;;;;;;7367459;19;20031;-78
2022/05/08 12:39:24;;;;;;;38.53;23.20;;;23.10;50.60;;;;;;7369207;19;20010;-77
2022/05/08 12:41:53;;;;;;;39.65;22.85;;;23.00;50.10;;;;;;7368585;19;20014;-77
2022/05/08 12:44:21;;;;;;;39.08;24.13;;;23.10;50.40;;;;;;7368069;19;20031;-77
2022/05/08 12:46:52;;;;;;;46.60;31.75;;;23.00;50.00;;;;;;7388053;19;20146;-79
2022/05/08 12:49:21;;;;;;;37.42;24.08;;;23.10;50.70;;;;;;7366273;19;20470;-77
2022/05/08 12:51:49;;;;;;;41.72;26.33;;;22.90;50.00;;;;;;7366007;19;20014;-77
2022/05/08 12:54:22;;;;;;;35.85;22.98;;;22.80;50.30;;;;;;7366852;19;20094;-76
2022/05/08 12:56:54;;;;;;;37.22;23.13;;;22.80;50.70;;;;;;7365276;19;20031;-77
2022/05/08 13:02:05;;;;;;;37.13;23.27;;;23.00;50.40;;;;;;7388671;19;20024;-76
2022/05/08 13:04:33;;;;;;;34.20;22.25;;;23.00;50.90;;;;;;7364947;19;20017;-78
2022/05/08 13:07:02;;;;;;;34.33;22.75;;;23.10;50.90;;;;;;7366065;19;20010;-78
2022/05/08 13:09:31;;;;;;;32.72;21.10;;;23.20;50.70;;;;;;7364489;19;20011;-75
2022/05/08 13:12:03;;;;;;;28.58;20.98;;;23.30;50.90;;;;;;7367083;19;20078;-77
2022/05/08 13:14:32;;;;;;;27.65;18.73;;;23.10;49.50;;;;;;7366259;19;20014;-76
2022/05/08 13:17:02;;;;;;;26.58;18.38;;;23.20;49.60;;;;;;7386514;19;20011;-77
2022/05/08 13:19:33;;;;;;;27.85;18.63;;;23.30;49.80;;;;;;7365825;19;20740;-76